Time;durP1;ratioP1;P1;durP2;ratioP2;P2;SDS_P1;SDS_P2;PMS_P1;PMS_P2;Temp;Humidity;BMP_temperature;BMP_pressure;BME280_temperature;BME280_humidity;BME280_pressure;Samples;Min_cycle;Max_cycle;Signal;HPM_P1;HPM_P2
2023/09/06 05:16:52;;;;;;;;;;;;;;;;;;1486095;26;20028;-41
2023/09/06 05:19:21;;;;;;;;;;;;;;;;;;5031158;28;20000;-41
2023/09/06 05:21:47;;;;;;;;;;;;;;;;;;5031135;28;19905;-41
2023/09/06 05:24:12;;;;;;;;;;;;;;;;;;5030691;28;19916;-40
2023/09/06 05:26:39;;;;;;;;;;;;;;;;;;5013069;28;19916;-41
2023/09/06 05:29:05;;;;;;;;;;;;;;;;;;5030739;28;20415;-41
2023/09/06 05:31:30;;;;;;;;;;;;;;;;;;5029386;28;19962;-41
2023/09/06 05:33:56;;;;;;;;;;;;;;;;;;5029871;28;19998;-41
2023/09/06 05:36:22;;;;;;;;;;;;;;;;;;5030742;28;19932;-41
2023/09/06 05:38:48;;;;;;;;;;;;;;;;;;5029649;28;20368;-40
2023/09/06 05:41:15;;;;;;;;;;;;;;;;;;5028518;28;19913;-41
2023/09/06 05:43:41;;;;;;;;;;;;;;;;;;5030800;28;20011;-41
2023/09/06 05:46:07;;;;;;;;;;;;;;;;;;5030542;28;19920;-41
2023/09/06 05:48:33;;;;;;;;;;;;;;;;;;5030615;28;19909;-41
2023/09/06 05:50:59;;;;;;;;;;;;;;;;;;5029303;28;19960;-41
2023/09/06 05:53:26;;;;;;;;;;;;;;;;;;5030570;28;19935;-41
2023/09/06 05:55:52;;;;;;;;;;;;;;;;;;5029460;28;19909;-45
2023/09/06 05:58:18;;;;;;;;;;;;;;;;;;5030802;28;19919;-41
2023/09/06 06:00:43;;;;;;;;;;;;;;;;;;5026529;28;19929;-41
2023/09/06 06:03:10;;;;;;;;;;;;;;;;;;5025828;28;20000;-41
2023/09/06 06:05:36;;;;;;;;;;;;;;;;;;5021536;28;19944;-41
2023/09/06 06:08:02;;;;;;;;;;;;;;;;;;5029980;28;19963;-42
2023/09/06 06:10:34;;;;;;;;;;;;;;;;;;5030377;28;19920;-41
2023/09/06 06:13:00;;;;;;;;;;;;;;;;;;5026187;28;19996;-41
2023/09/06 06:15:25;;;;;;;;;;;;;;;;;;5030362;28;20024;-41
2023/09/06 06:17:51;;;;;;;;;;;;;;;;;;5030203;28;20004;-41
2023/09/06 06:20:17;;;;;;;;;;;;;;;;;;5030554;28;19987;-41
2023/09/06 06:22:43;;;;;;;;;;;;;;;;;;5028599;28;20383;-41
2023/09/06 06:25:10;;;;;;;;;;;;;;;;;;5030159;28;19913;-41
2023/09/06 06:27:36;;;;;;;;;;;;;;;;;;5030346;28;20272;-41
2023/09/06 06:30:05;;;;;;;;;;;;;;;;;;5031966;28;19917;-41
2023/09/06 06:32:31;;;;;;;;;;;;;;;;;;5032753;28;19914;-41
2023/09/06 06:35:00;;;;;;;;;;;;;;;;;;5033887;28;19962;-41
2023/09/06 06:37:26;;;;;;;;;;;;;;;;;;5033669;28;20342;-41
2023/09/06 06:39:52;;;;;;;;;;;;;;;;;;5034152;28;19905;-41
2023/09/06 06:42:18;;;;;;;;;;;;;;;;;;5029947;28;19913;-41
2023/09/06 06:44:45;;;;;;;;;;;;;;;;;;5031261;28;19919;-41
2023/09/06 06:47:11;;;;;;;;;;;;;;;;;;5044577;28;20008;-41
2023/09/06 06:49:37;;;;;;;;;;;;;;;;;;5032197;28;20413;-41
2023/09/06 06:52:03;;;;;;;;;;;;;;;;;;5015787;28;20279;-41
2023/09/06 06:54:29;;;;;;;;;;;;;;;;;;5048040;28;19917;-41
2023/09/06 06:56:55;;;;;;;;;;;;;;;;;;5031810;28;19913;-41
2023/09/06 06:59:20;;;;;;;;;;;;;;;;;;5031600;28;19913;-41
2023/09/06 07:01:47;;;;;;;;;;;;;;;;;;5033416;28;20453;-41
2023/09/06 07:04:13;;;;;;;;;;;;;;;;;;5039755;28;19960;-41
2023/09/06 07:06:39;;;;;;;;;;;;;;;;;;5033134;28;20494;-41
2023/09/06 07:09:05;;;;;;;;;;;;;;;;;;5035196;28;19919;-41
2023/09/06 07:11:31;;;;;;;;;;;;;;;;;;5033577;28;19999;-41
2023/09/06 07:13:57;;;;;;;;;;;;;;;;;;5033009;28;19910;-42
2023/09/06 07:16:23;;;;;;;;;;;;;;;;;;5033598;28;20280;-41
2023/09/06 07:18:49;;;;;;;;;;;;;;;;;;5028426;28;19997;-41
2023/09/06 07:21:15;;;;;;;;;;;;;;;;;;5031796;28;19975;-41
2023/09/06 07:23:41;;;;;;;;;;;;;;;;;;5026415;28;19913;-41
2023/09/06 07:26:07;;;;;;;;;;;;;;;;;;5026669;28;19928;-41
2023/09/06 07:28:33;;;;;;;;;;;;;;;;;;5029993;28;20011;-41
2023/09/06 07:30:59;;;;;;;;;;;;;;;;;;5024581;28;19925;-41
2023/09/06 07:33:25;;;;;;;;;;;;;;;;;;5027108;28;19913;-41
2023/09/06 07:35:51;;;;;;;;;;;;;;;;;;5029002;28;20372;-41
2023/09/06 07:38:17;;;;;;;;;;;;;;;;;;5031268;28;19913;-41
2023/09/06 07:40:42;;;;;;;;;;;;;;;;;;5025815;28;20007;-41
2023/09/06 07:43:08;;;;;;;;;;;;;;;;;;5037386;28;19913;-41
2023/09/06 07:45:36;;;;;;;;;;;;;;;;;;5031715;28;19917;-41
2023/09/06 07:48:03;;;;;;;;;;;;;;;;;;5032190;28;19909;-41
2023/09/06 07:50:29;;;;;;;;;;;;;;;;;;5031295;28;19917;-41
2023/09/06 07:52:55;;;;;;;;;;;;;;;;;;5029135;28;19967;-42
2023/09/06 07:55:21;;;;;;;;;;;;;;;;;;5030376;28;19959;-41
2023/09/06 07:57:47;;;;;;;;;;;;;;;;;;5011771;28;19913;-41
2023/09/06 08:00:13;;;;;;;;;;;;;;;;;;5031269;28;20407;-41
2023/09/06 08:02:39;;;;;;;;;;;;;;;;;;5032677;28;19924;-42
2023/09/06 08:05:05;;;;;;;;;;;;;;;;;;5019478;28;19909;-41
2023/09/06 08:07:32;;;;;;;;;;;;;;;;;;5031888;28;19913;-41
2023/09/06 08:10:01;;;;;;;;;;;;;;;;;;5030364;28;19917;-41
2023/09/06 08:12:27;;;;;;;;;;;;;;;;;;5030949;28;19910;-41
2023/09/06 08:14:53;;;;;;;;;;;;;;;;;;5028063;28;20335;-41
2023/09/06 08:17:19;;;;;;;;;;;;;;;;;;5026518;28;20014;-41
2023/09/06 08:19:45;;;;;;;;;;;;;;;;;;5009297;28;19920;-42
2023/09/06 08:22:11;;;;;;;;;;;;;;;;;;5028262;28;19913;-42
2023/09/06 08:24:36;;;;;;;;;;;;;;;;;;5014887;28;19913;-42
2023/09/06 08:27:05;;;;;;;;;;;;;;;;;;5028340;28;19917;-41
2023/09/06 08:29:30;;;;;;;;;;;;;;;;;;5021965;28;19921;-41
2023/09/06 08:31:56;;;;;;;;;;;;;;;;;;5028323;28;20408;-41
2023/09/06 08:34:23;;;;;;;;;;;;;;;;;;5029954;28;19948;-41
2023/09/06 08:36:50;;;;;;;;;;;;;;;;;;5030809;28;19913;-42
2023/09/06 08:39:16;;;;;;;;;;;;;;;;;;5026768;28;19920;-42
2023/09/06 08:41:42;;;;;;;;;;;;;;;;;;5028052;28;19917;-41
2023/09/06 08:44:09;;;;;;;;;;;;;;;;;;5030481;28;20262;-42
2023/09/06 08:46:35;;;;;;;;;;;;;;;;;;5020193;28;20087;-41
2023/09/06 08:49:01;;;;;;;;;;;;;;;;;;5023992;28;20431;-43
2023/09/06 08:51:27;;;;;;;;;;;;;;;;;;5020747;28;19914;-42
2023/09/06 08:53:52;;;;;;;;;;;;;;;;;;5017210;28;19960;-42
2023/09/06 08:56:19;;;;;;;;;;;;;;;;;;5048021;28;19966;-42
2023/09/06 08:58:45;;;;;;;;;;;;;;;;;;5027542;28;20264;-41
2023/09/06 09:01:10;;;;;;;;;;;;;;;;;;5031837;28;19919;-42
2023/09/06 09:03:36;;;;;;;;;;;;;;;;;;5028428;28;19998;-42
2023/09/06 09:06:08;;;;;;;;;;;;;;;;;;5030249;28;19916;-43
2023/09/06 09:08:34;;;;;;;;;;;;;;;;;;5029804;28;20273;-43
2023/09/06 09:11:00;;;;;;;;;;;;;;;;;;5028522;28;19959;-40
2023/09/06 09:13:26;;;;;;;;;;;;;;;;;;5027935;28;19924;-44
2023/09/06 09:15:52;;;;;;;;;;;;;;;;;;5025234;28;19954;-42
2023/09/06 09:18:18;;;;;;;;;;;;;;;;;;5029375;28;19948;-42
2023/09/06 09:20:45;;;;;;;;;;;;;;;;;;5010591;28;19971;-42
2023/09/06 09:23:13;;;;;;;;;;;;;;;;;;5027155;28;19959;-41
2023/09/06 09:25:39;;;;;;;;;;;;;;;;;;5030668;28;20000;-41
2023/09/06 09:28:06;;;;;;;;;;;;;;;;;;5029254;28;20152;-43
2023/09/06 09:30:33;;;;;;;;;;;;;;;;;;5033045;28;19928;-42
2023/09/06 09:32:59;;;;;;;;;;;;;;;;;;5043771;28;19912;-41
2023/09/06 09:35:25;;;;;;;;;;;;;;;;;;5047646;28;19916;-41
2023/09/06 09:37:52;;;;;;;;;;;;;;;;;;5023425;28;19913;-42
2023/09/06 09:40:18;;;;;;;;;;;;;;;;;;5030536;28;20371;-43
2023/09/06 09:42:44;;;;;;;;;;;;;;;;;;5026423;28;19920;-42
2023/09/06 09:45:11;;;;;;;;;;;;;;;;;;5030267;28;20435;-41
2023/09/06 09:47:37;;;;;;;;;;;;;;;;;;5029005;28;19913;-43
2023/09/06 09:50:03;;;;;;;;;;;;;;;;;;5025209;28;20059;-41
2023/09/06 09:52:29;;;;;;;;;;;;;;;;;;5017634;28;19917;-41
2023/09/06 09:54:54;;;;;;;;;;;;;;;;;;5027875;28;19909;-41
2023/09/06 09:57:23;;;;;;;;;;;;;;;;;;5029573;28;19924;-41
2023/09/06 09:59:49;;;;;;;;;;;;;;;;;;5040733;28;19917;-41
2023/09/06 10:02:15;;;;;;;;;;;;;;;;;;5033745;28;19912;-41
2023/09/06 10:04:42;;;;;;;;;;;;;;;;;;5053814;28;19998;-40
2023/09/06 10:07:11;;;;;;;;;;;;;;;;;;5029257;28;20269;-41
2023/09/06 10:09:37;;;;;;;;;;;;;;;;;;5033393;28;20307;-41
2023/09/06 10:12:03;;;;;;;;;;;;;;;;;;5014175;28;19967;-41
2023/09/06 10:14:29;;;;;;;;;;;;;;;;;;5028513;28;19913;-41
2023/09/06 10:16:55;;;;;;;;;;;;;;;;;;5027524;28;19921;-40
2023/09/06 10:19:21;;;;;;;;;;;;;;;;;;5014414;28;19979;-39
2023/09/06 10:21:47;;;;;;;;;;;;;;;;;;5031359;28;20004;-40
2023/09/06 10:24:13;;;;;;;;;;;;;;;;;;5033524;28;19952;-40
2023/09/06 10:26:40;;;;;;;;;;;;;;;;;;5032738;28;19955;-39
2023/09/06 10:29:06;;;;;;;;;;;;;;;;;;5043489;28;19970;-40
2023/09/06 10:31:32;;;;;;;;;;;;;;;;;;5039466;28;19909;-40
2023/09/06 10:33:58;;;;;;;;;;;;;;;;;;5029217;28;19913;-40
2023/09/06 10:36:27;;;;;;;;;;;;;;;;;;5031764;28;20397;-40
2023/09/06 10:38:54;;;;;;;;;;;;;;;;;;5032441;28;19913;-39
2023/09/06 10:41:20;;;;;;;;;;;;;;;;;;5031701;28;20302;-39
2023/09/06 10:43:46;;;;;;;;;;;;;;;;;;5046622;28;19913;-40
2023/09/06 10:46:13;;;;;;;;;;;;;;;;;;5053253;28;20275;-40
2023/09/06 10:48:39;;;;;;;;;;;;;;;;;;5049486;28;19925;-39
2023/09/06 10:51:06;;;;;;;;;;;;;;;;;;5033498;28;19921;-41
2023/09/06 10:53:32;;;;;;;;;;;;;;;;;;5031451;28;19914;-41
2023/09/06 10:56:00;;;;;;;;;;;;;;;;;;5029223;28;19917;-41
2023/09/06 10:58:25;;;;;;;;;;;;;;;;;;5026882;28;19913;-41
2023/09/06 11:00:51;;;;;;;;;;;;;;;;;;5028782;28;19921;-41
2023/09/06 11:03:18;;;;;;;;;;;;;;;;;;5030661;28;20523;-42
2023/09/06 11:05:44;;;;;;;;;;;;;;;;;;5032100;28;19916;-41
2023/09/06 11:08:10;;;;;;;;;;;;;;;;;;5029499;28;19917;-41
2023/09/06 11:10:36;;;;;;;;;;;;;;;;;;5012565;28;19995;-41
2023/09/06 11:13:01;;;;;;;;;;;;;;;;;;5025208;28;19921;-42
2023/09/06 11:15:27;;;;;;;;;;;;;;;;;;5012387;28;19948;-41
2023/09/06 11:17:53;;;;;;;;;;;;;;;;;;5030424;28;19970;-41
2023/09/06 11:20:20;;;;;;;;;;;;;;;;;;5029150;28;19948;-41
2023/09/06 11:22:46;;;;;;;;;;;;;;;;;;5030143;28;19917;-41
2023/09/06 11:25:12;;;;;;;;;;;;;;;;;;5035319;28;19921;-41
2023/09/06 11:27:38;;;;;;;;;;;;;;;;;;5029748;28;20591;-41
2023/09/06 11:30:10;;;;;;;;;;;;;;;;;;5013379;28;19913;-41
2023/09/06 11:32:36;;;;;;;;;;;;;;;;;;5027217;28;19958;-40
2023/09/06 11:35:05;;;;;;;;;;;;;;;;;;5030492;28;19913;-41
2023/09/06 11:37:31;;;;;;;;;;;;;;;;;;5030622;28;19913;-41
2023/09/06 11:39:57;;;;;;;;;;;;;;;;;;5031453;28;19916;-41
2023/09/06 11:42:24;;;;;;;;;;;;;;;;;;5029229;28;20271;-41
2023/09/06 11:44:53;;;;;;;;;;;;;;;;;;5025499;28;20396;-41
2023/09/06 11:47:19;;;;;;;;;;;;;;;;;;5010056;28;20391;-41
2023/09/06 11:49:45;;;;;;;;;;;;;;;;;;5031953;28;19931;-41
2023/09/06 11:52:11;;;;;;;;;;;;;;;;;;5037736;28;19913;-41
2023/09/06 11:54:38;;;;;;;;;;;;;;;;;;5025429;28;20407;-41
2023/09/06 11:57:04;;;;;;;;;;;;;;;;;;5026177;28;19913;-41
2023/09/06 11:59:32;;;;;;;;;;;;;;;;;;5027068;28;19919;-42
2023/09/06 12:02:03;;;;;;;;;;;;;;;;;;5025062;28;19921;-41
2023/09/06 12:04:31;;;;;;;;;;;;;;;;;;5022812;28;19952;-41
2023/09/06 12:06:58;;;;;;;;;;;;;;;;;;5029475;28;19944;-42
2023/09/06 12:09:24;;;;;;;;;;;;;;;;;;5031005;28;19963;-41
2023/09/06 12:11:50;;;;;;;;;;;;;;;;;;5030527;28;20000;-41
2023/09/06 12:14:16;;;;;;;;;;;;;;;;;;5027490;28;20307;-41
2023/09/06 12:16:42;;;;;;;;;;;;;;;;;;5041374;28;19917;-41
2023/09/06 12:19:10;;;;;;;;;;;;;;;;;;5027972;28;19948;-41
2023/09/06 12:21:36;;;;;;;;;;;;;;;;;;5030523;28;19909;-42
2023/09/06 12:24:02;;;;;;;;;;;;;;;;;;5030484;28;19909;-42
2023/09/06 12:26:28;;;;;;;;;;;;;;;;;;5028818;28;19909;-41
2023/09/06 12:28:54;;;;;;;;;;;;;;;;;;5019358;28;19909;-41
2023/09/06 12:31:20;;;;;;;;;;;;;;;;;;5018030;28;20252;-42
2023/09/06 12:33:49;;;;;;;;;;;;;;;;;;5028110;28;19909;-41
2023/09/06 12:36:16;;;;;;;;;;;;;;;;;;5026173;28;19921;-42
2023/09/06 12:38:42;;;;;;;;;;;;;;;;;;5029466;28;20007;-42
2023/09/06 12:41:08;;;;;;;;;;;;;;;;;;5028174;28;20044;-41
2023/09/06 12:43:35;;;;;;;;;;;;;;;;;;5030541;28;20406;-41
2023/09/06 12:46:02;;;;;;;;;;;;;;;;;;5022574;28;20253;-42
2023/09/06 12:48:28;;;;;;;;;;;;;;;;;;5026215;28;20284;-41
2023/09/06 12:50:54;;;;;;;;;;;;;;;;;;5024212;28;19926;-41
2023/09/06 12:53:20;;;;;;;;;;;;;;;;;;5026550;28;19924;-42
2023/09/06 12:55:46;;;;;;;;;;;;;;;;;;5029316;28;19952;-41
2023/09/06 12:58:12;;;;;;;;;;;;;;;;;;5028286;28;19960;-42
2023/09/06 13:00:38;;;;;;;;;;;;;;;;;;5028641;28;19913;-41
2023/09/06 13:03:04;;;;;;;;;;;;;;;;;;5027841;28;20342;-41
2023/09/06 13:05:31;;;;;;;;;;;;;;;;;;5030883;28;19975;-41
2023/09/06 13:07:57;;;;;;;;;;;;;;;;;;5030553;28;19996;-41
2023/09/06 13:10:23;;;;;;;;;;;;;;;;;;5030160;28;19996;-41
2023/09/06 13:12:49;;;;;;;;;;;;;;;;;;5028444;28;19909;-42
2023/09/06 13:15:15;;;;;;;;;;;;;;;;;;5028965;28;19917;-41
2023/09/06 13:17:40;;;;;;;;;;;;;;;;;;5026496;28;19917;-42
2023/09/06 13:20:12;;;;;;;;;;;;;;;;;;5029304;28;19967;-41
2023/09/06 13:22:38;;;;;;;;;;;;;;;;;;5027163;28;20392;-43
2023/09/06 13:25:06;;;;;;;;;;;;;;;;;;5029092;28;19964;-42
2023/09/06 13:27:32;;;;;;;;;;;;;;;;;;5029538;28;19909;-42
2023/09/06 13:29:58;;;;;;;;;;;;;;;;;;5028083;28;20383;-42
2023/09/06 13:32:25;;;;;;;;;;;;;;;;;;5023588;28;19913;-41
2023/09/06 13:34:52;;;;;;;;;;;;;;;;;;5030442;28;19923;-43
2023/09/06 13:37:18;;;;;;;;;;;;;;;;;;5035443;28;19956;-42
2023/09/06 13:39:44;;;;;;;;;;;;;;;;;;5027750;28;20324;-42
2023/09/06 13:42:10;;;;;;;;;;;;;;;;;;5025487;28;19913;-41
2023/09/06 13:44:36;;;;;;;;;;;;;;;;;;5027460;28;20115;-43
2023/09/06 13:47:03;;;;;;;;;;;;;;;;;;5027223;28;19924;-41
2023/09/06 13:49:29;;;;;;;;;;;;;;;;;;5011581;28;19970;-42
2023/09/06 13:51:55;;;;;;;;;;;;;;;;;;5039989;28;20010;-42
2023/09/06 13:54:21;;;;;;;;;;;;;;;;;;5037372;28;20610;-42
2023/09/06 13:56:50;;;;;;;;;;;;;;;;;;5027316;28;19913;-42
2023/09/06 13:59:17;;;;;;;;;;;;;;;;;;5026053;28;19996;-43
2023/09/06 14:01:43;;;;;;;;;;;;;;;;;;5028380;28;19944;-42
2023/09/06 14:04:09;;;;;;;;;;;;;;;;;;5027305;28;19917;-42
2023/09/06 14:06:35;;;;;;;;;;;;;;;;;;5028585;28;19916;-42
2023/09/06 14:09:00;;;;;;;;;;;;;;;;;;5026681;28;19924;-43
2023/09/06 14:11:26;;;;;;;;;;;;;;;;;;5008875;28;20307;-41
2023/09/06 14:13:53;;;;;;;;;;;;;;;;;;5028094;28;19940;-41
2023/09/06 14:16:20;;;;;;;;;;;;;;;;;;5009609;28;19913;-42
2023/09/06 14:18:46;;;;;;;;;;;;;;;;;;5027291;28;19917;-42
2023/09/06 14:21:20;;;;;;;;;;;;;;;;;;5025080;28;19913;-42
2023/09/06 14:23:49;;;;;;;;;;;;;;;;;;5025061;28;20212;-43
2023/09/06 14:26:15;;;;;;;;;;;;;;;;;;5019388;28;19972;-42
2023/09/06 14:28:40;;;;;;;;;;;;;;;;;;5007866;28;19910;-42
2023/09/06 14:31:06;;;;;;;;;;;;;;;;;;5007287;28;20442;-41
2023/09/06 14:33:32;;;;;;;;;;;;;;;;;;5014934;28;19913;-46
2023/09/06 14:35:58;;;;;;;;;;;;;;;;;;5026444;28;19913;-44
2023/09/06 14:38:24;;;;;;;;;;;;;;;;;;5027099;28;19913;-42
2023/09/06 14:40:50;;;;;;;;;;;;;;;;;;5027158;28;19913;-43
2023/09/06 14:43:16;;;;;;;;;;;;;;;;;;5026402;28;19967;-43
2023/09/06 14:45:42;;;;;;;;;;;;;;;;;;5009285;28;19964;-44
2023/09/06 14:48:08;;;;;;;;;;;;;;;;;;5026660;28;19996;-46
2023/09/06 14:50:34;;;;;;;;;;;;;;;;;;5029203;28;19917;-43
2023/09/06 14:53:00;;;;;;;;;;;;;;;;;;5029886;28;19927;-43
2023/09/06 14:55:26;;;;;;;;;;;;;;;;;;5012950;28;19917;-42
2023/09/06 14:57:52;;;;;;;;;;;;;;;;;;5011877;28;19951;-43
2023/09/06 15:00:18;;;;;;;;;;;;;;;;;;5028160;28;19920;-43
2023/09/06 15:02:45;;;;;;;;;;;;;;;;;;5014633;28;19920;-43
2023/09/06 15:05:11;;;;;;;;;;;;;;;;;;5049027;28;19912;-43
2023/09/06 15:07:39;;;;;;;;;;;;;;;;;;5050346;28;20406;-43
2023/09/06 15:10:06;;;;;;;;;;;;;;;;;;5050053;28;19913;-42
2023/09/06 15:12:31;;;;;;;;;;;;;;;;;;5036408;28;19913;-43
2023/09/06 15:14:58;;;;;;;;;;;;;;;;;;5010057;28;19964;-42
2023/09/06 15:17:24;;;;;;;;;;;;;;;;;;5029914;28;19917;-42
2023/09/06 15:19:50;;;;;;;;;;;;;;;;;;5019838;28;19913;-43
2023/09/06 15:22:16;;;;;;;;;;;;;;;;;;5028629;28;19960;-42
2023/09/06 15:24:42;;;;;;;;;;;;;;;;;;5030335;28;19955;-43
2023/09/06 15:27:09;;;;;;;;;;;;;;;;;;5022136;28;19909;-43
2023/09/06 15:29:36;;;;;;;;;;;;;;;;;;5030241;28;19952;-42
2023/09/06 15:32:02;;;;;;;;;;;;;;;;;;5028430;28;19992;-43
2023/09/06 15:34:28;;;;;;;;;;;;;;;;;;5016882;28;19917;-44
2023/09/06 15:36:54;;;;;;;;;;;;;;;;;;5010862;28;20321;-43
2023/09/06 15:39:20;;;;;;;;;;;;;;;;;;5022271;28;19939;-43
2023/09/06 15:41:46;;;;;;;;;;;;;;;;;;5029697;28;19920;-46
2023/09/06 15:44:13;;;;;;;;;;;;;;;;;;5028297;28;19948;-43
2023/09/06 15:46:39;;;;;;;;;;;;;;;;;;5030074;28;19958;-42
2023/09/06 15:49:05;;;;;;;;;;;;;;;;;;5030580;28;20004;-43
2023/09/06 15:51:31;;;;;;;;;;;;;;;;;;5029699;28;20016;-44
2023/09/06 15:53:57;;;;;;;;;;;;;;;;;;5027396;28;20012;-42
2023/09/06 15:56:23;;;;;;;;;;;;;;;;;;5030714;28;19909;-42
2023/09/06 15:58:49;;;;;;;;;;;;;;;;;;5012415;28;20006;-43
2023/09/06 16:01:16;;;;;;;;;;;;;;;;;;5033758;28;19920;-42
2023/09/06 16:03:42;;;;;;;;;;;;;;;;;;5030302;28;19968;-43
2023/09/06 16:06:08;;;;;;;;;;;;;;;;;;5028285;28;19915;-42
2023/09/06 16:08:33;;;;;;;;;;;;;;;;;;5030874;28;19914;-42
2023/09/06 16:10:59;;;;;;;;;;;;;;;;;;5029718;28;19917;-42
2023/09/06 16:13:25;;;;;;;;;;;;;;;;;;5027400;28;19917;-43
2023/09/06 16:15:51;;;;;;;;;;;;;;;;;;5029963;28;20329;-42
2023/09/06 16:18:17;;;;;;;;;;;;;;;;;;5036460;28;19917;-42
2023/09/06 16:20:43;;;;;;;;;;;;;;;;;;5027089;28;20309;-43
2023/09/06 16:23:09;;;;;;;;;;;;;;;;;;5027512;28;19922;-43
2023/09/06 16:25:35;;;;;;;;;;;;;;;;;;5012755;28;19996;-43
2023/09/06 16:28:01;;;;;;;;;;;;;;;;;;5028846;28;19912;-42
2023/09/06 16:30:27;;;;;;;;;;;;;;;;;;5029333;28;19951;-42
2023/09/06 16:32:52;;;;;;;;;;;;;;;;;;5025433;28;19998;-43
2023/09/06 16:35:18;;;;;;;;;;;;;;;;;;5027962;28;20332;-43
2023/09/06 16:37:50;;;;;;;;;;;;;;;;;;5008971;28;19932;-42
2023/09/06 16:40:20;;;;;;;;;;;;;;;;;;5015322;28;19920;-42
2023/09/06 16:42:46;;;;;;;;;;;;;;;;;;5028417;28;19913;-44
2023/09/06 16:45:13;;;;;;;;;;;;;;;;;;5027195;28;19920;-43
2023/09/06 16:47:39;;;;;;;;;;;;;;;;;;5023652;28;19924;-43
2023/09/06 16:50:05;;;;;;;;;;;;;;;;;;5009707;28;20379;-42
2023/09/06 16:52:31;;;;;;;;;;;;;;;;;;5023317;28;20619;-43
2023/09/06 16:54:59;;;;;;;;;;;;;;;;;;5008229;28;19933;-45
2023/09/06 16:57:25;;;;;;;;;;;;;;;;;;5026088;28;19909;-43
2023/09/06 16:59:51;;;;;;;;;;;;;;;;;;5026934;28;19943;-44
2023/09/06 17:02:17;;;;;;;;;;;;;;;;;;5026040;28;20331;-43
2023/09/06 17:04:43;;;;;;;;;;;;;;;;;;5026859;28;19909;-43
2023/09/06 17:07:08;;;;;;;;;;;;;;;;;;5020765;28;20114;-44
2023/09/06 17:09:34;;;;;;;;;;;;;;;;;;5022820;28;20003;-43
2023/09/06 17:12:00;;;;;;;;;;;;;;;;;;5025074;28;19913;-46
2023/09/06 17:14:26;;;;;;;;;;;;;;;;;;5023648;28;19913;-46
2023/09/06 17:16:52;;;;;;;;;;;;;;;;;;5037347;28;19913;-44
2023/09/06 17:19:18;;;;;;;;;;;;;;;;;;5012322;28;20343;-43
2023/09/06 17:21:44;;;;;;;;;;;;;;;;;;5024680;28;19947;-47
2023/09/06 17:24:10;;;;;;;;;;;;;;;;;;5023681;28;19913;-43
2023/09/06 17:26:41;;;;;;;;;;;;;;;;;;5025461;28;20019;-45
2023/09/06 17:29:10;;;;;;;;;;;;;;;;;;5018661;28;19909;-45
2023/09/06 17:31:36;;;;;;;;;;;;;;;;;;5038425;28;19927;-43
2023/09/06 17:34:02;;;;;;;;;;;;;;;;;;5025867;28;19913;-42
2023/09/06 17:36:28;;;;;;;;;;;;;;;;;;5026092;28;20130;-44
2023/09/06 17:38:54;;;;;;;;;;;;;;;;;;5002609;28;19913;-46
2023/09/06 17:41:20;;;;;;;;;;;;;;;;;;5015565;28;19917;-43
2023/09/06 17:43:46;;;;;;;;;;;;;;;;;;5009261;28;20591;-44
2023/09/06 17:46:11;;;;;;;;;;;;;;;;;;5006774;28;19919;-43
2023/09/06 17:48:37;;;;;;;;;;;;;;;;;;5014859;28;19913;-41
2023/09/06 17:51:07;;;;;;;;;;;;;;;;;;5024825;28;19931;-42
2023/09/06 17:53:35;;;;;;;;;;;;;;;;;;5023024;28;19920;-42
2023/09/06 17:56:02;;;;;;;;;;;;;;;;;;5025038;28;20292;-43
2023/09/06 17:58:28;;;;;;;;;;;;;;;;;;5025868;28;19913;-44
2023/09/06 18:00:55;;;;;;;;;;;;;;;;;;5026852;28;20396;-42
2023/09/06 18:03:22;;;;;;;;;;;;;;;;;;5021607;28;19921;-41
2023/09/06 18:05:55;;;;;;;;;;;;;;;;;;5032226;28;20035;-42
2023/09/06 18:08:21;;;;;;;;;;;;;;;;;;5023745;28;20048;-42
2023/09/06 18:10:47;;;;;;;;;;;;;;;;;;5028105;28;20000;-41
2023/09/06 18:13:14;;;;;;;;;;;;;;;;;;5034625;28;19917;-42
2023/09/06 18:15:39;;;;;;;;;;;;;;;;;;5025128;28;19948;-42
2023/09/06 18:18:13;;;;;;;;;;;;;;;;;;5017733;28;19965;-41
2023/09/06 18:20:39;;;;;;;;;;;;;;;;;;5023777;28;19913;-42
2023/09/06 18:23:06;;;;;;;;;;;;;;;;;;5022540;28;19918;-41
2023/09/06 18:25:32;;;;;;;;;;;;;;;;;;5011430;28;20405;-41
2023/09/06 18:27:58;;;;;;;;;;;;;;;;;;5025084;28;19920;-41
2023/09/06 18:30:24;;;;;;;;;;;;;;;;;;5031019;28;19926;-41
2023/09/06 18:32:50;;;;;;;;;;;;;;;;;;5027810;28;19964;-43
2023/09/06 18:35:18;;;;;;;;;;;;;;;;;;5013405;28;19922;-41
2023/09/06 18:37:44;;;;;;;;;;;;;;;;;;5004354;28;19913;-41
2023/09/06 18:40:13;;;;;;;;;;;;;;;;;;5027593;28;20299;-41
2023/09/06 18:42:39;;;;;;;;;;;;;;;;;;5026162;28;19944;-41
2023/09/06 18:45:10;;;;;;;;;;;;;;;;;;5007409;28;20304;-41
2023/09/06 18:47:36;;;;;;;;;;;;;;;;;;5028895;28;19913;-41
2023/09/06 18:50:06;;;;;;;;;;;;;;;;;;5034571;28;19966;-41
2023/09/06 18:52:33;;;;;;;;;;;;;;;;;;5037775;28;20406;-41
2023/09/06 18:54:59;;;;;;;;;;;;;;;;;;5028348;28;19913;-41
2023/09/06 18:57:25;;;;;;;;;;;;;;;;;;5035276;28;20269;-40
2023/09/06 18:59:51;;;;;;;;;;;;;;;;;;5036193;28;19959;-40
2023/09/06 19:02:18;;;;;;;;;;;;;;;;;;5027761;28;20738;-41
2023/09/06 19:04:44;;;;;;;;;;;;;;;;;;5038740;28;19913;-42
2023/09/06 19:07:10;;;;;;;;;;;;;;;;;;5011673;28;19935;-43
2023/09/06 19:09:36;;;;;;;;;;;;;;;;;;5008976;28;19913;-41
2023/09/06 19:12:01;;;;;;;;;;;;;;;;;;5027516;28;19966;-41
2023/09/06 19:14:28;;;;;;;;;;;;;;;;;;5026612;28;19919;-42
2023/09/06 19:16:53;;;;;;;;;;;;;;;;;;5027748;28;19913;-41
2023/09/06 19:19:19;;;;;;;;;;;;;;;;;;5027307;28;19939;-43
2023/09/06 19:21:45;;;;;;;;;;;;;;;;;;5025228;28;19992;-42
2023/09/06 19:24:11;;;;;;;;;;;;;;;;;;5023425;28;20619;-41
2023/09/06 19:26:41;;;;;;;;;;;;;;;;;;5025624;28;20181;-41
2023/09/06 19:29:07;;;;;;;;;;;;;;;;;;5025568;28;19913;-41
2023/09/06 19:31:33;;;;;;;;;;;;;;;;;;5026655;28;20012;-41
2023/09/06 19:33:59;;;;;;;;;;;;;;;;;;5028811;28;20161;-42
2023/09/06 19:36:25;;;;;;;;;;;;;;;;;;5027267;28;19917;-41
2023/09/06 19:38:52;;;;;;;;;;;;;;;;;;5031069;28;19913;-41
2023/09/06 19:41:18;;;;;;;;;;;;;;;;;;5028864;28;19935;-41
2023/09/06 19:43:44;;;;;;;;;;;;;;;;;;5027100;28;19921;-41
2023/09/06 19:46:10;;;;;;;;;;;;;;;;;;5023896;28;20319;-41
2023/09/06 19:48:35;;;;;;;;;;;;;;;;;;5023800;28;19937;-41
2023/09/06 19:51:04;;;;;;;;;;;;;;;;;;5010586;28;20450;-41
2023/09/06 19:53:30;;;;;;;;;;;;;;;;;;5025423;28;19925;-41
2023/09/06 19:55:55;;;;;;;;;;;;;;;;;;5030042;28;19921;-41
2023/09/06 19:58:21;;;;;;;;;;;;;;;;;;5028450;28;19932;-41
2023/09/06 20:00:47;;;;;;;;;;;;;;;;;;5030625;28;19913;-41
2023/09/06 20:03:13;;;;;;;;;;;;;;;;;;5030055;28;19913;-41
2023/09/06 20:05:39;;;;;;;;;;;;;;;;;;5027985;28;19921;-41
2023/09/06 20:08:05;;;;;;;;;;;;;;;;;;5026354;28;19921;-40
2023/09/06 20:10:31;;;;;;;;;;;;;;;;;;5009203;28;20021;-41
2023/09/06 20:12:57;;;;;;;;;;;;;;;;;;5027925;28;20373;-41
2023/09/06 20:15:23;;;;;;;;;;;;;;;;;;5021685;28;19913;-41
2023/09/06 20:17:49;;;;;;;;;;;;;;;;;;5010908;28;20526;-41
2023/09/06 20:20:15;;;;;;;;;;;;;;;;;;5048064;28;19913;-41
2023/09/06 20:22:41;;;;;;;;;;;;;;;;;;5021056;28;19909;-41
2023/09/06 20:25:07;;;;;;;;;;;;;;;;;;5026850;28;20012;-41
2023/09/06 20:27:33;;;;;;;;;;;;;;;;;;5028458;28;19967;-41
2023/09/06 20:29:59;;;;;;;;;;;;;;;;;;5042296;28;19955;-41
2023/09/06 20:32:24;;;;;;;;;;;;;;;;;;5031125;28;19963;-40
2023/09/06 20:34:50;;;;;;;;;;;;;;;;;;5043447;28;19913;-40
2023/09/06 20:37:16;;;;;;;;;;;;;;;;;;5023917;28;20407;-41
2023/09/06 20:39:42;;;;;;;;;;;;;;;;;;5028495;28;19908;-40
2023/09/06 20:42:08;;;;;;;;;;;;;;;;;;5003370;28;19917;-40
2023/09/06 20:44:34;;;;;;;;;;;;;;;;;;5027540;28;20304;-40
2023/09/06 20:47:00;;;;;;;;;;;;;;;;;;5020823;28;19909;-40
2023/09/06 20:49:26;;;;;;;;;;;;;;;;;;5026783;28;19920;-40
2023/09/06 20:51:52;;;;;;;;;;;;;;;;;;5029386;28;19909;-40
2023/09/06 20:54:18;;;;;;;;;;;;;;;;;;5015038;28;19917;-40
2023/09/06 20:56:44;;;;;;;;;;;;;;;;;;5037436;28;20288;-41
2023/09/06 20:59:10;;;;;;;;;;;;;;;;;;5022836;28;20020;-40
2023/09/06 21:01:36;;;;;;;;;;;;;;;;;;5023409;28;20379;-41
2023/09/06 21:04:02;;;;;;;;;;;;;;;;;;5023971;28;19913;-40
2023/09/06 21:06:27;;;;;;;;;;;;;;;;;;5023093;28;20418;-40
2023/09/06 21:08:54;;;;;;;;;;;;;;;;;;5029532;28;19913;-42
2023/09/06 21:11:20;;;;;;;;;;;;;;;;;;5018578;28;19971;-40
2023/09/06 21:13:45;;;;;;;;;;;;;;;;;;5021866;28;19916;-41
2023/09/06 21:16:11;;;;;;;;;;;;;;;;;;5028607;28;19913;-41
2023/09/06 21:18:37;;;;;;;;;;;;;;;;;;5024889;28;19994;-41
2023/09/06 21:21:03;;;;;;;;;;;;;;;;;;5007761;28;20352;-41
2023/09/06 21:23:30;;;;;;;;;;;;;;;;;;5000848;28;19971;-41
2023/09/06 21:25:56;;;;;;;;;;;;;;;;;;5018253;28;19913;-41
2023/09/06 21:28:22;;;;;;;;;;;;;;;;;;5021798;28;20375;-41
2023/09/06 21:30:48;;;;;;;;;;;;;;;;;;5033518;28;19947;-41
2023/09/06 21:33:14;;;;;;;;;;;;;;;;;;5030240;28;19920;-40
2023/09/06 21:35:41;;;;;;;;;;;;;;;;;;5026441;28;19913;-40
2023/09/06 21:38:07;;;;;;;;;;;;;;;;;;5004735;28;20585;-40
2023/09/06 21:40:33;;;;;;;;;;;;;;;;;;5024403;28;19964;-40
2023/09/06 21:42:59;;;;;;;;;;;;;;;;;;5034486;28;20023;-40
2023/09/06 21:45:25;;;;;;;;;;;;;;;;;;5008334;28;20000;-40
2023/09/06 21:47:51;;;;;;;;;;;;;;;;;;5007079;28;19913;-40
2023/09/06 21:50:18;;;;;;;;;;;;;;;;;;5022859;28;19924;-41
2023/09/06 21:52:44;;;;;;;;;;;;;;;;;;5026891;28;19910;-41
2023/09/06 21:55:10;;;;;;;;;;;;;;;;;;5026422;28;19971;-40